Rosefield, Illinois
Current Conditions -  °F | °C
As of 10:54 PM on Thursday 27 Nov 2014 (Local Time) from KPIA Reporting Station
Broken Clouds Broken Clouds  
Wind Chill:   Ceiling: 9000
Heat Index: 14°   Visibility: 10mi
Dew Point:   Wind: 7mph
Humidity: 77%   Direction: 230°SW
Pressure: 30.43"   Gusts: NA
Location:  40.7615°N, 89.9372°W
Report Text: KPIA 280454Z 23006KT 10SM BKN090 M10/M13 A3043 RMK AO2 SLP317 T11001133
Loading
Personal Weather Stations






























Interactive Weather Map New forecast layout! Learn more

10-Day Weather Forecast

Advertisements
Track Severe Weather on mobile